ETD844 UUEE-OMAA
Flight info
| Callsign | ETD844 |
|---|---|
| Flight time | N/A |
| Altitude | 37000 |
| Route | TOGMO3H TOGMO M56 DENUD M161 LATNU/K0896F390 M161 AMDAR/N0487F390 M875 TAPIS L509 LAJAK M881 LAKRA/N0492F380 G325 SAJAN/N0488F400 G325 PG T385 TAPDO A454 VUSET R462 MIXAM P899 ROVOS |
| Aircraft | A35K/H-SDE2E3GHIJ3J4J5LM1ORWXY/LB1D1 |
Departure
| Time | N/A |
|---|---|
| Airport | Sheremetyevo International Airport (UUEE) |
Arrival
| Time | 2026-05-04 19:52 |
|---|---|
| Airport | Zayed International Airport (OMAA) |
| Time | Latitude | Longitude | Altitude | Speed | Heading |
|---|---|---|---|---|---|
| 2026-05-04 19:22 | 23.78739 | 57.49511 | 39765 ft | 459 kts | 282° |
| 2026-05-04 19:23 | 23.79473 | 57.46113 | 39760 ft | 459 kts | 282° |
| 2026-05-04 19:23 | 23.80936 | 57.39328 | 39766 ft | 459 kts | 282° |
| 2026-05-04 19:24 | 23.82394 | 57.32555 | 39763 ft | 458 kts | 282° |
| 2026-05-04 19:24 | 23.83844 | 57.25812 | 39767 ft | 458 kts | 282° |
| 2026-05-04 19:25 | 23.85298 | 57.19026 | 39772 ft | 458 kts | 282° |
| 2026-05-04 19:25 | 23.86259 | 57.14531 | 39773 ft | 458 kts | 282° |
| 2026-05-04 19:26 | 23.87706 | 57.07758 | 39781 ft | 458 kts | 282° |
| 2026-05-04 19:26 | 23.88833 | 57.02469 | 39780 ft | 458 kts | 282° |
| 2026-05-04 19:27 | 23.90264 | 56.95737 | 39785 ft | 458 kts | 282° |
| 2026-05-04 19:27 | 23.91703 | 56.88956 | 39791 ft | 458 kts | 282° |
| 2026-05-04 19:28 | 23.93139 | 56.82171 | 39798 ft | 458 kts | 282° |
| 2026-05-04 19:28 | 23.94567 | 56.75411 | 39415 ft | 454 kts | 282° |
| 2026-05-04 19:28 | 23.95279 | 56.72033 | 38744 ft | 456 kts | 282° |
| 2026-05-04 19:29 | 23.95991 | 56.68644 | 37991 ft | 458 kts | 282° |
| 2026-05-04 19:29 | 23.96696 | 56.65287 | 37163 ft | 460 kts | 282° |
| 2026-05-04 19:29 | 23.97412 | 56.61873 | 36315 ft | 464 kts | 282° |
| 2026-05-04 19:29 | 23.98138 | 56.58418 | 35497 ft | 467 kts | 282° |
| 2026-05-04 19:30 | 23.98867 | 56.54948 | 34730 ft | 469 kts | 282° |
| 2026-05-04 19:30 | 23.99599 | 56.51460 | 33961 ft | 472 kts | 282° |
| 2026-05-04 19:30 | 24.00334 | 56.47944 | 33061 ft | 475 kts | 282° |
| 2026-05-04 19:30 | 24.01072 | 56.44417 | 32205 ft | 476 kts | 282° |
| 2026-05-04 19:31 | 24.01808 | 56.40890 | 31354 ft | 478 kts | 282° |
| 2026-05-04 19:31 | 24.02548 | 56.37337 | 30477 ft | 480 kts | 282° |
| 2026-05-04 19:31 | 24.03291 | 56.33766 | 29522 ft | 482 kts | 282° |
| 2026-05-04 19:31 | 24.04032 | 56.30200 | 28735 ft | 479 kts | 282° |
| 2026-05-04 19:32 | 24.04955 | 56.26710 | 28072 ft | 474 kts | 288° |
| 2026-05-04 19:32 | 24.06064 | 56.23331 | 27410 ft | 470 kts | 289° |
| 2026-05-04 19:32 | 24.07207 | 56.19996 | 26772 ft | 466 kts | 290° |
| 2026-05-04 19:32 | 24.08365 | 56.16695 | 26113 ft | 463 kts | 290° |
| 2026-05-04 19:33 | 24.09524 | 56.13419 | 25466 ft | 460 kts | 290° |
| 2026-05-04 19:33 | 24.10678 | 56.10162 | 24824 ft | 457 kts | 290° |
| 2026-05-04 19:33 | 24.11819 | 56.06930 | 24184 ft | 455 kts | 290° |
| 2026-05-04 19:33 | 24.12940 | 56.03745 | 23539 ft | 453 kts | 290° |
| 2026-05-04 19:34 | 24.14065 | 56.00538 | 22833 ft | 450 kts | 290° |
| 2026-05-04 19:34 | 24.15179 | 55.97354 | 22173 ft | 445 kts | 290° |
| 2026-05-04 19:34 | 24.16279 | 55.94204 | 21537 ft | 441 kts | 290° |
| 2026-05-04 19:34 | 24.17368 | 55.91085 | 20904 ft | 436 kts | 290° |
| 2026-05-04 19:35 | 24.18447 | 55.87988 | 20278 ft | 433 kts | 290° |
| 2026-05-04 19:35 | 24.19513 | 55.84929 | 19636 ft | 429 kts | 291° |
| 2026-05-04 19:35 | 24.20575 | 55.81878 | 19006 ft | 426 kts | 291° |
| 2026-05-04 19:35 | 24.21507 | 55.78797 | 18344 ft | 425 kts | 287° |
| 2026-05-04 19:36 | 24.22329 | 55.75698 | 17675 ft | 423 kts | 286° |
| 2026-05-04 19:36 | 24.23105 | 55.72600 | 17011 ft | 419 kts | 285° |
| 2026-05-04 19:36 | 24.23851 | 55.69523 | 16361 ft | 415 kts | 285° |
| 2026-05-04 19:36 | 24.24583 | 55.66474 | 15715 ft | 412 kts | 285° |
| 2026-05-04 19:37 | 24.25299 | 55.63480 | 15067 ft | 410 kts | 285° |
| 2026-05-04 19:37 | 24.26031 | 55.60438 | 14399 ft | 407 kts | 285° |
| 2026-05-04 19:37 | 24.26692 | 55.57428 | 13751 ft | 405 kts | 283° |
| 2026-05-04 19:37 | 24.27247 | 55.54421 | 13254 ft | 397 kts | 282° |
| 2026-05-04 19:38 | 24.27773 | 55.51553 | 13123 ft | 380 kts | 282° |
| 2026-05-04 19:38 | 24.28291 | 55.48781 | 13018 ft | 364 kts | 283° |
| 2026-05-04 19:38 | 24.28794 | 55.46125 | 12906 ft | 348 kts | 283° |
| 2026-05-04 19:38 | 24.29280 | 55.43575 | 12764 ft | 334 kts | 283° |
| 2026-05-04 19:39 | 24.29748 | 55.41130 | 12622 ft | 322 kts | 283° |
| 2026-05-04 19:39 | 24.30199 | 55.38773 | 12472 ft | 310 kts | 283° |
| 2026-05-04 19:39 | 24.30445 | 55.36448 | 12151 ft | 307 kts | 269° |
| 2026-05-04 19:39 | 24.29958 | 55.34177 | 11753 ft | 308 kts | 250° |
| 2026-05-04 19:40 | 24.29117 | 55.32019 | 11367 ft | 306 kts | 248° |
| 2026-05-04 19:40 | 24.28256 | 55.29897 | 11019 ft | 304 kts | 248° |
| 2026-05-04 19:40 | 24.27415 | 55.27803 | 10819 ft | 296 kts | 249° |
| 2026-05-04 19:40 | 24.26599 | 55.25754 | 10512 ft | 292 kts | 249° |
| 2026-05-04 19:41 | 24.25791 | 55.23712 | 10163 ft | 291 kts | 249° |
| 2026-05-04 19:41 | 24.24990 | 55.21683 | 9798 ft | 291 kts | 250° |
| 2026-05-04 19:41 | 24.24178 | 55.19616 | 9433 ft | 298 kts | 250° |
| 2026-05-04 19:41 | 24.23368 | 55.17561 | 9068 ft | 298 kts | 250° |
| 2026-05-04 19:42 | 24.22550 | 55.15483 | 8707 ft | 296 kts | 250° |
| 2026-05-04 19:42 | 24.21736 | 55.13424 | 8346 ft | 294 kts | 250° |
| 2026-05-04 19:42 | 24.20926 | 55.11371 | 7998 ft | 293 kts | 250° |
| 2026-05-04 19:42 | 24.20157 | 55.09423 | 7659 ft | 291 kts | 250° |
| 2026-05-04 19:43 | 24.19354 | 55.07387 | 7311 ft | 290 kts | 250° |
| 2026-05-04 19:43 | 24.18555 | 55.05361 | 6960 ft | 290 kts | 250° |
| 2026-05-04 19:43 | 24.17881 | 55.03304 | 6612 ft | 284 kts | 262° |
| 2026-05-04 19:43 | 24.17945 | 55.01238 | 6452 ft | 264 kts | 290° |
| 2026-05-04 19:44 | 24.18753 | 54.99523 | 6358 ft | 246 kts | 309° |
| 2026-05-04 19:44 | 24.19774 | 54.98075 | 6250 ft | 235 kts | 311° |
| 2026-05-04 19:44 | 24.20776 | 54.96702 | 6113 ft | 227 kts | 311° |
| 2026-05-04 19:44 | 24.21753 | 54.95363 | 5836 ft | 224 kts | 311° |
| 2026-05-04 19:45 | 24.22716 | 54.94024 | 5566 ft | 223 kts | 310° |
| 2026-05-04 19:45 | 24.23677 | 54.92688 | 5291 ft | 223 kts | 310° |
| 2026-05-04 19:45 | 24.24634 | 54.91352 | 5028 ft | 223 kts | 310° |
| 2026-05-04 19:45 | 24.25599 | 54.90006 | 4758 ft | 224 kts | 310° |
| 2026-05-04 19:46 | 24.26559 | 54.88666 | 4468 ft | 223 kts | 310° |
| 2026-05-04 19:46 | 24.27513 | 54.87329 | 4214 ft | 223 kts | 309° |
| 2026-05-04 19:46 | 24.28447 | 54.86017 | 4096 ft | 212 kts | 310° |
| 2026-05-04 19:46 | 24.29338 | 54.84772 | 4033 ft | 206 kts | 310° |
| 2026-05-04 19:47 | 24.30219 | 54.83539 | 3880 ft | 205 kts | 309° |
| 2026-05-04 19:47 | 24.31087 | 54.82318 | 3661 ft | 205 kts | 309° |
| 2026-05-04 19:47 | 24.31962 | 54.81088 | 3453 ft | 204 kts | 309° |
| 2026-05-04 19:47 | 24.32833 | 54.79866 | 3259 ft | 200 kts | 309° |
| 2026-05-04 19:48 | 24.33661 | 54.78707 | 3215 ft | 184 kts | 309° |
| 2026-05-04 19:48 | 24.34419 | 54.77638 | 3120 ft | 170 kts | 309° |
| 2026-05-04 19:48 | 24.35110 | 54.76658 | 3028 ft | 156 kts | 309° |
| 2026-05-04 19:48 | 24.35752 | 54.75775 | 2979 ft | 142 kts | 309° |
| 2026-05-04 19:49 | 24.36159 | 54.75204 | 2882 ft | 145 kts | 309° |
| 2026-05-04 19:49 | 24.36793 | 54.74308 | 2783 ft | 150 kts | 308° |
| 2026-05-04 19:49 | 24.37434 | 54.73395 | 2668 ft | 154 kts | 308° |
| 2026-05-04 19:49 | 24.38357 | 54.72081 | 1760 ft | 170 kts | 309° |
| 2026-05-04 19:50 | 24.38861 | 54.71379 | 1280 ft | 178 kts | 310° |
| 2026-05-04 19:50 | 24.39616 | 54.70323 | 816 ft | 174 kts | 308° |
| 2026-05-04 19:50 | 24.40319 | 54.69327 | 668 ft | 153 kts | 307° |
| 2026-05-04 19:50 | 24.40947 | 54.68441 | 537 ft | 142 kts | 307° |
| 2026-05-04 19:51 | 24.41543 | 54.67595 | 331 ft | 140 kts | 307° |
| 2026-05-04 19:51 | 24.42139 | 54.66750 | 132 ft | 140 kts | 307° |
| 2026-05-04 19:51 | 24.42701 | 54.65967 | 87 ft | 112 kts | 308° |
| 2026-05-04 19:51 | 24.43086 | 54.65426 | 88 ft | 67 kts | 310° |
| 2026-05-04 19:52 | 24.43298 | 54.65135 | 88 ft | 41 kts | 309° |
| 2026-05-04 19:52 | 24.43465 | 54.64944 | 88 ft | 26 kts | 326° |
| 2026-05-04 19:52 | 24.43631 | 54.64858 | 86 ft | 27 kts | 336° |
| 2026-05-04 19:52 | 24.43769 | 54.64770 | 82 ft | 18 kts | 308° |
| 2026-05-04 19:53 | 24.43864 | 54.64678 | 87 ft | 18 kts | 352° |
| 2026-05-04 19:53 | 24.43928 | 54.64717 | 86 ft | 14 kts | 38° |
| 2026-05-04 19:53 | 24.44017 | 54.64793 | 85 ft | 17 kts | 37° |
| 2026-05-04 19:53 | 24.44120 | 54.64881 | 87 ft | 20 kts | 38° |
| 2026-05-04 19:54 | 24.44234 | 54.64978 | 88 ft | 22 kts | 38° |
| 2026-05-04 19:54 | 24.44362 | 54.65087 | 86 ft | 24 kts | 38° |
| 2026-05-04 19:54 | 24.44480 | 54.65142 | 87 ft | 15 kts | 337° |
| 2026-05-04 19:54 | 24.44547 | 54.65058 | 84 ft | 16 kts | 309° |
| 2026-05-04 19:55 | 24.44620 | 54.64956 | 85 ft | 18 kts | 307° |
| 2026-05-04 19:55 | 24.44682 | 54.64885 | 87 ft | 12 kts | 333° |
| 2026-05-04 19:55 | 24.44764 | 54.64872 | 85 ft | 10 kts | 332° |
| 2026-05-04 19:55 | 24.44814 | 54.64812 | 87 ft | 12 kts | 309° |
| 2026-05-04 19:56 | 24.44870 | 54.64733 | 86 ft | 14 kts | 308° |
| 2026-05-04 19:56 | 24.44915 | 54.64650 | 84 ft | 10 kts | 311° |
| 2026-05-04 19:56 | 24.44970 | 54.64647 | 86 ft | 9 kts | 13° |
| 2026-05-04 19:56 | 24.44997 | 54.64654 | 84 ft | 2 kts | 13° |
| 2026-05-04 19:57 | 24.45006 | 54.64656 | 84 ft | 0 kts | 13° |